Terminal Aerodrome Forecast
Issued by NWS Glasgow, MT

Home | Current Version | Previous Version | Text Only | Print | Product List | Glossary On
Versions: 1 2 3 4 5 6 7 8 9 10 11 12 13
312
FTUS45 KGGW 242320
TAFGGW
TAF
KGGW 242320Z 2500/2524 21010KT P6SM SKC
     FM250300 14011KT P6SM SKC
     FM250800 13012KT P6SM SKC WS020/22030KT
     FM251200 14010KT P6SM SKC
     FM251500 20010KT P6SM FEW250=

USA.gov is the U.S. government's official web portal to all federal, state and local government web resources and services.